This is the latest recevied weather packets stored in our database for station/object KB1FPD. If no packets are shown the sender has not sent any weather packets the latest 1 day(s).
| Time | Temp. | Humidity | Pressure | Rain* | Wind** | Luminosity | Snow |
|---|---|---|---|---|---|---|---|
| 1836274808 | 21.67° C | 81% | 1019.6 hPa | 0 mm | 0 m/s | - | - |
| 1836274509 | 21.67° C | 80% | 1019.6 hPa | 0 mm | 0.45 m/s, 10° | - | - |
| 1836274360 | 21.67° C | 81% | 1019.6 hPa | 0 mm | 0 m/s | - | - |
| 1836274207 | 21.67° C | 79% | 1019.6 hPa | 0 mm | 0.45 m/s, 10° | - | - |
| 1836273910 | 21.67° C | 79% | 1019.6 hPa | 0 mm | 0.89 m/s, 10° | - | - |
| 1778042811 | 18.33° C | 56% | 1010.6 hPa | 0 mm | 2.68 m/s, 188° | - | - |
| 1778042511 | 18.33° C | 56% | 1010.7 hPa | 0 mm | 1.79 m/s, 138° | - | - |
| 1778042212 | 18.33° C | 56% | 1010.6 hPa | 0 mm | 1.79 m/s, 187° | - | - |
| 1778041914 | 18.33° C | 55% | 1010.7 hPa | 0 mm | 2.24 m/s, 217° | - | - |
| 1778041611 | 18.33° C | 55% | 1010.6 hPa | 0 mm | 2.68 m/s, 150° | - | - |
| 1778041310 | 18.33° C | 55% | 1010.7 hPa | 0 mm | 2.24 m/s, 145° | - | - |
| 1778041011 | 18.33° C | 55% | 1010.7 hPa | 0 mm | 2.68 m/s, 162° | - | - |
| 1778040713 | 18.33° C | 55% | 1010.6 hPa | 0 mm | 2.68 m/s, 192° | - | - |
| 1778040411 | 18.33° C | 54% | 1010.6 hPa | 0 mm | 2.68 m/s, 146° | - | - |
| 1778040113 | 18.89° C | 54% | 1010.6 hPa | 0 mm | 2.68 m/s, 149° | - | - |
| 1778039808 | 18.89° C | 54% | 1010.6 hPa | 0 mm | 2.68 m/s, 136° | - | - |
| 1778039509 | 18.89° C | 54% | 1010.5 hPa | 0 mm | 2.68 m/s, 176° | - | - |
| 1778039207 | 18.89° C | 53% | 1010.4 hPa | 0 mm | 3.13 m/s, 203° | - | - |
| 1778038909 | 18.89° C | 53% | 1010.6 hPa | 0 mm | 2.68 m/s, 143° | - | - |
| 1778038610 | 18.89° C | 52% | 1010.5 hPa | 0 mm | 2.24 m/s, 169° | - | - |
| 1778038307 | 18.89° C | 52% | 1010.6 hPa | 0 mm | 2.24 m/s, 143° | - | - |
| 1778038008 | 18.89° C | 51% | 1010.6 hPa | 0 mm | 2.24 m/s, 156° | - | - |
| 1778037707 | 18.89° C | 51% | 1010.4 hPa | 0 mm | 2.24 m/s, 165° | - | - |
| 1778037408 | 18.89° C | 51% | 1010.5 hPa | 0 mm | 2.24 m/s, 164° | - | - |
| 1778037110 | 18.89° C | 51% | 1010.4 hPa | 0 mm | 1.79 m/s, 164° | - | - |
* Rain latest hour (hover to see other rain measurements)
** Current wind speed in m/s (hover to see current wind gust speed)